sensor_id;sensor_type;location;lat;lon;timestamp;P1;durP1;ratioP1;P2;durP2;ratioP2
39874;SDS011;25547;52.530;13.194;2023-06-22T00:02:17;7.80;;;4.80;;
39874;SDS011;25547;52.530;13.194;2023-06-22T00:04:45;7.00;;;5.28;;
39874;SDS011;25547;52.530;13.194;2023-06-22T00:07:11;5.68;;;4.72;;
39874;SDS011;25547;52.530;13.194;2023-06-22T00:09:37;5.60;;;4.38;;
39874;SDS011;25547;52.530;13.194;2023-06-22T00:12:02;5.85;;;5.10;;
39874;SDS011;25547;52.530;13.194;2023-06-22T00:14:31;7.68;;;5.30;;
39874;SDS011;25547;52.530;13.194;2023-06-22T00:16:59;7.38;;;4.88;;
39874;SDS011;25547;52.530;13.194;2023-06-22T00:19:27;4.85;;;4.40;;
39874;SDS011;25547;52.530;13.194;2023-06-22T00:21:52;5.63;;;4.85;;
39874;SDS011;25547;52.530;13.194;2023-06-22T00:24:21;5.68;;;4.82;;
39874;SDS011;25547;52.530;13.194;2023-06-22T00:26:50;5.97;;;4.85;;
39874;SDS011;25547;52.530;13.194;2023-06-22T00:29:16;6.05;;;4.70;;
39874;SDS011;25547;52.530;13.194;2023-06-22T00:31:44;6.47;;;4.60;;
39874;SDS011;25547;52.530;13.194;2023-06-22T00:34:09;5.47;;;4.95;;
39874;SDS011;25547;52.530;13.194;2023-06-22T00:36:35;5.47;;;4.70;;
39874;SDS011;25547;52.530;13.194;2023-06-22T00:39:01;5.53;;;4.45;;
39874;SDS011;25547;52.530;13.194;2023-06-22T00:41:32;5.00;;;4.05;;
39874;SDS011;25547;52.530;13.194;2023-06-22T00:43:58;8.43;;;4.47;;
39874;SDS011;25547;52.530;13.194;2023-06-22T00:46:23;5.00;;;4.50;;
39874;SDS011;25547;52.530;13.194;2023-06-22T00:48:55;4.43;;;3.90;;
39874;SDS011;25547;52.530;13.194;2023-06-22T00:51:22;12.10;;;5.43;;
39874;SDS011;25547;52.530;13.194;2023-06-22T00:53:51;6.10;;;4.18;;
39874;SDS011;25547;52.530;13.194;2023-06-22T00:56:18;7.15;;;4.63;;
39874;SDS011;25547;52.530;13.194;2023-06-22T00:58:45;6.30;;;5.43;;
39874;SDS011;25547;52.530;13.194;2023-06-22T01:01:12;7.28;;;4.97;;
39874;SDS011;25547;52.530;13.194;2023-06-22T01:03:39;9.75;;;4.93;;
39874;SDS011;25547;52.530;13.194;2023-06-22T01:06:08;5.57;;;4.15;;
39874;SDS011;25547;52.530;13.194;2023-06-22T01:08:42;8.38;;;4.63;;
39874;SDS011;25547;52.530;13.194;2023-06-22T01:11:20;6.05;;;4.95;;
39874;SDS011;25547;52.530;13.194;2023-06-22T01:13:58;6.07;;;3.85;;
39874;SDS011;25547;52.530;13.194;2023-06-22T01:16:30;7.57;;;5.13;;
39874;SDS011;25547;52.530;13.194;2023-06-22T01:19:09;7.32;;;5.10;;
39874;SDS011;25547;52.530;13.194;2023-06-22T01:22:04;5.85;;;4.38;;
39874;SDS011;25547;52.530;13.194;2023-06-22T01:24:33;4.63;;;4.18;;
39874;SDS011;25547;52.530;13.194;2023-06-22T01:30:21;5.05;;;4.65;;
39874;SDS011;25547;52.530;13.194;2023-06-22T01:32:50;4.75;;;3.72;;
39874;SDS011;25547;52.530;13.194;2023-06-22T01:35:18;5.60;;;5.10;;
39874;SDS011;25547;52.530;13.194;2023-06-22T01:37:46;8.48;;;4.63;;
39874;SDS011;25547;52.530;13.194;2023-06-22T01:40:14;5.55;;;4.85;;
39874;SDS011;25547;52.530;13.194;2023-06-22T01:42:41;5.57;;;4.97;;
39874;SDS011;25547;52.530;13.194;2023-06-22T01:45:08;5.75;;;4.90;;
39874;SDS011;25547;52.530;13.194;2023-06-22T01:47:35;5.68;;;5.10;;
39874;SDS011;25547;52.530;13.194;2023-06-22T01:50:04;7.43;;;5.63;;
39874;SDS011;25547;52.530;13.194;2023-06-22T01:52:30;10.35;;;6.72;;
39874;SDS011;25547;52.530;13.194;2023-06-22T01:54:59;7.90;;;5.85;;
39874;SDS011;25547;52.530;13.194;2023-06-22T01:57:25;7.85;;;6.13;;
39874;SDS011;25547;52.530;13.194;2023-06-22T02:00:04;12.30;;;6.25;;
39874;SDS011;25547;52.530;13.194;2023-06-22T02:02:37;6.18;;;5.47;;
39874;SDS011;25547;52.530;13.194;2023-06-22T02:05:08;10.75;;;6.40;;
39874;SDS011;25547;52.530;13.194;2023-06-22T02:07:39;8.23;;;6.03;;
39874;SDS011;25547;52.530;13.194;2023-06-22T02:10:11;9.13;;;6.28;;
39874;SDS011;25547;52.530;13.194;2023-06-22T02:12:40;7.25;;;5.93;;
39874;SDS011;25547;52.530;13.194;2023-06-22T02:15:08;7.88;;;5.97;;
39874;SDS011;25547;52.530;13.194;2023-06-22T02:17:35;6.65;;;5.90;;
39874;SDS011;25547;52.530;13.194;2023-06-22T02:20:02;11.07;;;7.25;;
39874;SDS011;25547;52.530;13.194;2023-06-22T02:22:33;6.35;;;5.75;;
39874;SDS011;25547;52.530;13.194;2023-06-22T02:25:01;10.15;;;6.65;;
39874;SDS011;25547;52.530;13.194;2023-06-22T02:29:57;8.20;;;6.15;;
39874;SDS011;25547;52.530;13.194;2023-06-22T02:32:23;10.52;;;6.57;;
39874;SDS011;25547;52.530;13.194;2023-06-22T02:34:52;7.82;;;7.03;;
39874;SDS011;25547;52.530;13.194;2023-06-22T02:37:18;9.90;;;6.57;;
39874;SDS011;25547;52.530;13.194;2023-06-22T02:39:43;6.65;;;5.65;;
39874;SDS011;25547;52.530;13.194;2023-06-22T02:42:12;7.15;;;6.00;;
39874;SDS011;25547;52.530;13.194;2023-06-22T02:44:40;7.57;;;6.28;;
39874;SDS011;25547;52.530;13.194;2023-06-22T02:47:06;6.90;;;5.85;;
39874;SDS011;25547;52.530;13.194;2023-06-22T02:49:32;6.53;;;5.70;;
39874;SDS011;25547;52.530;13.194;2023-06-22T02:52:00;8.38;;;6.97;;
39874;SDS011;25547;52.530;13.194;2023-06-22T02:54:28;7.47;;;6.68;;
39874;SDS011;25547;52.530;13.194;2023-06-22T02:56:53;9.15;;;7.03;;
39874;SDS011;25547;52.530;13.194;2023-06-22T02:59:19;9.95;;;7.10;;
39874;SDS011;25547;52.530;13.194;2023-06-22T03:01:51;9.48;;;7.93;;
39874;SDS011;25547;52.530;13.194;2023-06-22T03:04:17;9.13;;;7.05;;
39874;SDS011;25547;52.530;13.194;2023-06-22T03:06:43;13.07;;;8.20;;
39874;SDS011;25547;52.530;13.194;2023-06-22T03:09:08;8.18;;;7.38;;
39874;SDS011;25547;52.530;13.194;2023-06-22T03:11:34;9.77;;;8.02;;
39874;SDS011;25547;52.530;13.194;2023-06-22T03:14:00;11.02;;;7.65;;
39874;SDS011;25547;52.530;13.194;2023-06-22T03:16:26;9.88;;;8.18;;
39874;SDS011;25547;52.530;13.194;2023-06-22T03:18:54;11.85;;;8.70;;
39874;SDS011;25547;52.530;13.194;2023-06-22T03:21:21;9.88;;;7.95;;
39874;SDS011;25547;52.530;13.194;2023-06-22T03:23:50;10.23;;;7.60;;
39874;SDS011;25547;52.530;13.194;2023-06-22T03:26:18;10.32;;;7.20;;
39874;SDS011;25547;52.530;13.194;2023-06-22T03:28:44;8.57;;;7.40;;
39874;SDS011;25547;52.530;13.194;2023-06-22T03:31:10;8.82;;;7.10;;
39874;SDS011;25547;52.530;13.194;2023-06-22T03:33:38;10.52;;;7.43;;
39874;SDS011;25547;52.530;13.194;2023-06-22T03:36:03;9.20;;;6.68;;
39874;SDS011;25547;52.530;13.194;2023-06-22T03:38:29;8.55;;;7.57;;
39874;SDS011;25547;52.530;13.194;2023-06-22T03:40:55;9.13;;;7.53;;
39874;SDS011;25547;52.530;13.194;2023-06-22T03:43:20;10.00;;;7.63;;
39874;SDS011;25547;52.530;13.194;2023-06-22T03:45:48;8.65;;;7.57;;
39874;SDS011;25547;52.530;13.194;2023-06-22T03:48:14;10.65;;;7.40;;
39874;SDS011;25547;52.530;13.194;2023-06-22T03:50:42;9.68;;;6.90;;
39874;SDS011;25547;52.530;13.194;2023-06-22T03:55:35;10.25;;;7.38;;
39874;SDS011;25547;52.530;13.194;2023-06-22T03:58:03;13.65;;;8.25;;
39874;SDS011;25547;52.530;13.194;2023-06-22T04:00:32;10.13;;;6.88;;
39874;SDS011;25547;52.530;13.194;2023-06-22T04:02:58;14.00;;;7.38;;
39874;SDS011;25547;52.530;13.194;2023-06-22T04:05:24;11.18;;;7.47;;
39874;SDS011;25547;52.530;13.194;2023-06-22T04:07:49;14.32;;;6.72;;
39874;SDS011;25547;52.530;13.194;2023-06-22T04:10:15;12.05;;;8.52;;
39874;SDS011;25547;52.530;13.194;2023-06-22T04:12:40;15.15;;;9.18;;
39874;SDS011;25547;52.530;13.194;2023-06-22T04:15:11;17.65;;;10.68;;
39874;SDS011;25547;52.530;13.194;2023-06-22T04:17:37;16.40;;;9.52;;
39874;SDS011;25547;52.530;13.194;2023-06-22T04:20:02;23.95;;;11.50;;
39874;SDS011;25547;52.530;13.194;2023-06-22T04:22:29;23.63;;;10.40;;
39874;SDS011;25547;52.530;13.194;2023-06-22T04:24:56;15.80;;;9.60;;
39874;SDS011;25547;52.530;13.194;2023-06-22T04:27:22;21.95;;;10.63;;
39874;SDS011;25547;52.530;13.194;2023-06-22T04:29:50;18.38;;;9.85;;
39874;SDS011;25547;52.530;13.194;2023-06-22T04:32:16;23.35;;;14.20;;
39874;SDS011;25547;52.530;13.194;2023-06-22T04:34:42;35.83;;;16.83;;
39874;SDS011;25547;52.530;13.194;2023-06-22T04:37:10;19.80;;;10.45;;
39874;SDS011;25547;52.530;13.194;2023-06-22T04:39:40;20.48;;;9.60;;
39874;SDS011;25547;52.530;13.194;2023-06-22T04:42:07;12.20;;;6.63;;
39874;SDS011;25547;52.530;13.194;2023-06-22T04:44:32;13.60;;;6.53;;
39874;SDS011;25547;52.530;13.194;2023-06-22T04:47:01;20.00;;;6.95;;
39874;SDS011;25547;52.530;13.194;2023-06-22T04:49:29;8.23;;;5.63;;
39874;SDS011;25547;52.530;13.194;2023-06-22T04:51:59;8.25;;;4.80;;
39874;SDS011;25547;52.530;13.194;2023-06-22T04:54:25;7.78;;;4.50;;
39874;SDS011;25547;52.530;13.194;2023-06-22T04:56:53;10.70;;;5.95;;
39874;SDS011;25547;52.530;13.194;2023-06-22T04:59:26;10.30;;;4.03;;
39874;SDS011;25547;52.530;13.194;2023-06-22T05:01:55;9.20;;;4.57;;
39874;SDS011;25547;52.530;13.194;2023-06-22T05:04:24;8.52;;;4.45;;
39874;SDS011;25547;52.530;13.194;2023-06-22T05:06:51;10.18;;;4.32;;
39874;SDS011;25547;52.530;13.194;2023-06-22T05:09:21;11.98;;;4.35;;
39874;SDS011;25547;52.530;13.194;2023-06-22T05:11:47;9.15;;;3.60;;
39874;SDS011;25547;52.530;13.194;2023-06-22T05:14:18;9.45;;;3.75;;
39874;SDS011;25547;52.530;13.194;2023-06-22T05:16:44;10.95;;;4.05;;
39874;SDS011;25547;52.530;13.194;2023-06-22T05:19:10;7.00;;;3.25;;
39874;SDS011;25547;52.530;13.194;2023-06-22T05:21:37;5.07;;;2.72;;
39874;SDS011;25547;52.530;13.194;2023-06-22T05:24:03;6.22;;;3.17;;
39874;SDS011;25547;52.530;13.194;2023-06-22T05:26:30;4.95;;;1.98;;
39874;SDS011;25547;52.530;13.194;2023-06-22T05:29:02;3.92;;;1.85;;
39874;SDS011;25547;52.530;13.194;2023-06-22T05:31:32;7.47;;;2.08;;
39874;SDS011;25547;52.530;13.194;2023-06-22T05:33:58;4.30;;;2.47;;
39874;SDS011;25547;52.530;13.194;2023-06-22T05:36:24;4.28;;;2.00;;
39874;SDS011;25547;52.530;13.194;2023-06-22T05:38:53;4.03;;;1.80;;
39874;SDS011;25547;52.530;13.194;2023-06-22T05:41:18;7.60;;;2.15;;
39874;SDS011;25547;52.530;13.194;2023-06-22T05:43:44;3.10;;;1.25;;
39874;SDS011;25547;52.530;13.194;2023-06-22T05:46:12;4.47;;;1.10;;
39874;SDS011;25547;52.530;13.194;2023-06-22T05:48:40;3.67;;;1.48;;
39874;SDS011;25547;52.530;13.194;2023-06-22T05:51:06;4.25;;;1.58;;
39874;SDS011;25547;52.530;13.194;2023-06-22T05:53:31;5.65;;;2.38;;
39874;SDS011;25547;52.530;13.194;2023-06-22T05:55:57;5.28;;;1.73;;
39874;SDS011;25547;52.530;13.194;2023-06-22T05:58:22;3.92;;;1.20;;
39874;SDS011;25547;52.530;13.194;2023-06-22T06:00:48;4.40;;;2.15;;
39874;SDS011;25547;52.530;13.194;2023-06-22T06:03:16;5.65;;;1.75;;
39874;SDS011;25547;52.530;13.194;2023-06-22T06:05:44;4.75;;;1.23;;
39874;SDS011;25547;52.530;13.194;2023-06-22T06:08:10;5.93;;;0.82;;
39874;SDS011;25547;52.530;13.194;2023-06-22T06:10:37;1.75;;;0.50;;
39874;SDS011;25547;52.530;13.194;2023-06-22T06:13:02;11.40;;;0.45;;
39874;SDS011;25547;52.530;13.194;2023-06-22T06:15:29;2.33;;;0.40;;
39874;SDS011;25547;52.530;13.194;2023-06-22T06:17:57;2.08;;;0.38;;
39874;SDS011;25547;52.530;13.194;2023-06-22T06:20:27;3.85;;;0.50;;
39874;SDS011;25547;52.530;13.194;2023-06-22T06:22:53;5.50;;;0.52;;
39874;SDS011;25547;52.530;13.194;2023-06-22T06:25:18;2.53;;;0.45;;
39874;SDS011;25547;52.530;13.194;2023-06-22T06:27:47;3.03;;;0.98;;
39874;SDS011;25547;52.530;13.194;2023-06-22T06:30:15;2.85;;;0.57;;
39874;SDS011;25547;52.530;13.194;2023-06-22T06:32:43;1.85;;;0.40;;
39874;SDS011;25547;52.530;13.194;2023-06-22T06:35:13;1.85;;;0.50;;
39874;SDS011;25547;52.530;13.194;2023-06-22T06:37:47;3.05;;;0.90;;
39874;SDS011;25547;52.530;13.194;2023-06-22T06:40:16;3.40;;;0.50;;
39874;SDS011;25547;52.530;13.194;2023-06-22T06:42:43;2.35;;;0.65;;
39874;SDS011;25547;52.530;13.194;2023-06-22T06:45:20;2.08;;;0.30;;
39874;SDS011;25547;52.530;13.194;2023-06-22T06:47:50;3.72;;;0.30;;
39874;SDS011;25547;52.530;13.194;2023-06-22T06:50:17;3.83;;;0.30;;
39874;SDS011;25547;52.530;13.194;2023-06-22T06:52:43;1.67;;;0.35;;
39874;SDS011;25547;52.530;13.194;2023-06-22T06:55:09;4.13;;;0.30;;
39874;SDS011;25547;52.530;13.194;2023-06-22T06:57:37;4.18;;;0.32;;
39874;SDS011;25547;52.530;13.194;2023-06-22T07:00:06;3.58;;;0.60;;
39874;SDS011;25547;52.530;13.194;2023-06-22T07:02:37;3.97;;;0.70;;
39874;SDS011;25547;52.530;13.194;2023-06-22T07:05:07;4.22;;;0.93;;
39874;SDS011;25547;52.530;13.194;2023-06-22T07:07:34;4.68;;;0.50;;
39874;SDS011;25547;52.530;13.194;2023-06-22T07:10:00;1.75;;;0.65;;
39874;SDS011;25547;52.530;13.194;2023-06-22T07:12:26;4.53;;;0.50;;
39874;SDS011;25547;52.530;13.194;2023-06-22T07:15:05;2.70;;;0.30;;
39874;SDS011;25547;52.530;13.194;2023-06-22T07:17:37;3.28;;;0.50;;
39874;SDS011;25547;52.530;13.194;2023-06-22T07:20:04;2.70;;;0.35;;
39874;SDS011;25547;52.530;13.194;2023-06-22T07:22:40;4.35;;;0.63;;
39874;SDS011;25547;52.530;13.194;2023-06-22T07:25:07;2.42;;;0.30;;
39874;SDS011;25547;52.530;13.194;2023-06-22T07:27:40;3.35;;;0.32;;
39874;SDS011;25547;52.530;13.194;2023-06-22T07:30:13;4.35;;;0.75;;
39874;SDS011;25547;52.530;13.194;2023-06-22T07:32:39;5.45;;;0.57;;
39874;SDS011;25547;52.530;13.194;2023-06-22T07:35:07;2.75;;;0.55;;
39874;SDS011;25547;52.530;13.194;2023-06-22T07:37:36;2.75;;;0.40;;
39874;SDS011;25547;52.530;13.194;2023-06-22T07:40:02;5.25;;;1.05;;
39874;SDS011;25547;52.530;13.194;2023-06-22T07:42:31;3.92;;;0.82;;
39874;SDS011;25547;52.530;13.194;2023-06-22T07:44:59;1.98;;;0.43;;
39874;SDS011;25547;52.530;13.194;2023-06-22T07:47:25;2.95;;;0.40;;
39874;SDS011;25547;52.530;13.194;2023-06-22T07:49:53;3.00;;;0.30;;
39874;SDS011;25547;52.530;13.194;2023-06-22T07:52:19;3.95;;;0.60;;
39874;SDS011;25547;52.530;13.194;2023-06-22T07:54:46;2.90;;;0.43;;
39874;SDS011;25547;52.530;13.194;2023-06-22T07:57:12;5.78;;;0.40;;
39874;SDS011;25547;52.530;13.194;2023-06-22T07:59:37;2.10;;;0.40;;
39874;SDS011;25547;52.530;13.194;2023-06-22T08:02:03;2.15;;;0.40;;
39874;SDS011;25547;52.530;13.194;2023-06-22T08:04:29;3.20;;;0.20;;
39874;SDS011;25547;52.530;13.194;2023-06-22T08:06:59;3.25;;;0.38;;
39874;SDS011;25547;52.530;13.194;2023-06-22T08:09:31;3.33;;;0.30;;
39874;SDS011;25547;52.530;13.194;2023-06-22T08:14:26;5.65;;;0.20;;
39874;SDS011;25547;52.530;13.194;2023-06-22T08:16:52;2.65;;;0.20;;
39874;SDS011;25547;52.530;13.194;2023-06-22T08:19:18;2.75;;;0.63;;
39874;SDS011;25547;52.530;13.194;2023-06-22T08:21:48;4.20;;;0.20;;
39874;SDS011;25547;52.530;13.194;2023-06-22T08:24:13;1.13;;;0.20;;
39874;SDS011;25547;52.530;13.194;2023-06-22T08:26:39;3.00;;;0.32;;
39874;SDS011;25547;52.530;13.194;2023-06-22T08:29:07;1.77;;;0.40;;
39874;SDS011;25547;52.530;13.194;2023-06-22T08:31:32;2.03;;;0.20;;
39874;SDS011;25547;52.530;13.194;2023-06-22T08:34:00;1.80;;;0.20;;
39874;SDS011;25547;52.530;13.194;2023-06-22T08:36:26;2.55;;;0.30;;
39874;SDS011;25547;52.530;13.194;2023-06-22T08:38:55;2.15;;;0.25;;
39874;SDS011;25547;52.530;13.194;2023-06-22T08:41:26;1.23;;;0.20;;
39874;SDS011;25547;52.530;13.194;2023-06-22T08:43:52;3.10;;;0.60;;
39874;SDS011;25547;52.530;13.194;2023-06-22T08:46:18;1.88;;;0.30;;
39874;SDS011;25547;52.530;13.194;2023-06-22T08:48:48;3.10;;;0.35;;
39874;SDS011;25547;52.530;13.194;2023-06-22T08:51:14;1.40;;;0.22;;
39874;SDS011;25547;52.530;13.194;2023-06-22T08:53:42;1.55;;;0.22;;
39874;SDS011;25547;52.530;13.194;2023-06-22T08:56:08;6.18;;;0.20;;
39874;SDS011;25547;52.530;13.194;2023-06-22T08:58:33;3.03;;;0.20;;
39874;SDS011;25547;52.530;13.194;2023-06-22T09:00:59;3.67;;;0.20;;
39874;SDS011;25547;52.530;13.194;2023-06-22T09:03:27;1.92;;;0.40;;
39874;SDS011;25547;52.530;13.194;2023-06-22T09:05:53;1.33;;;0.30;;
39874;SDS011;25547;52.530;13.194;2023-06-22T09:08:19;2.22;;;0.50;;
39874;SDS011;25547;52.530;13.194;2023-06-22T09:10:44;3.55;;;0.43;;
39874;SDS011;25547;52.530;13.194;2023-06-22T09:13:15;2.47;;;0.20;;
39874;SDS011;25547;52.530;13.194;2023-06-22T09:15:40;1.35;;;0.32;;
39874;SDS011;25547;52.530;13.194;2023-06-22T09:18:10;1.02;;;0.30;;
39874;SDS011;25547;52.530;13.194;2023-06-22T09:20:36;1.60;;;0.20;;
39874;SDS011;25547;52.530;13.194;2023-06-22T09:23:02;2.92;;;0.20;;
39874;SDS011;25547;52.530;13.194;2023-06-22T09:25:29;5.85;;;0.35;;
39874;SDS011;25547;52.530;13.194;2023-06-22T09:27:58;1.00;;;0.17;;
39874;SDS011;25547;52.530;13.194;2023-06-22T09:32:51;1.05;;;0.25;;
39874;SDS011;25547;52.530;13.194;2023-06-22T09:35:17;2.97;;;0.20;;
39874;SDS011;25547;52.530;13.194;2023-06-22T09:37:48;2.53;;;0.50;;
39874;SDS011;25547;52.530;13.194;2023-06-22T09:40:13;2.97;;;0.63;;
39874;SDS011;25547;52.530;13.194;2023-06-22T09:42:41;2.13;;;0.30;;
39874;SDS011;25547;52.530;13.194;2023-06-22T09:45:07;3.28;;;0.30;;
39874;SDS011;25547;52.530;13.194;2023-06-22T09:47:33;4.18;;;0.30;;
39874;SDS011;25547;52.530;13.194;2023-06-22T09:49:59;1.38;;;0.32;;
39874;SDS011;25547;52.530;13.194;2023-06-22T09:52:25;3.60;;;0.20;;
39874;SDS011;25547;52.530;13.194;2023-06-22T09:54:50;1.20;;;0.30;;
39874;SDS011;25547;52.530;13.194;2023-06-22T09:57:16;3.67;;;0.30;;
39874;SDS011;25547;52.530;13.194;2023-06-22T09:59:42;2.65;;;0.47;;
39874;SDS011;25547;52.530;13.194;2023-06-22T10:02:07;4.63;;;0.50;;
39874;SDS011;25547;52.530;13.194;2023-06-22T10:04:35;3.25;;;0.55;;
39874;SDS011;25547;52.530;13.194;2023-06-22T10:07:01;3.95;;;0.55;;
39874;SDS011;25547;52.530;13.194;2023-06-22T10:09:27;3.03;;;0.73;;
39874;SDS011;25547;52.530;13.194;2023-06-22T10:11:53;1.98;;;0.43;;
39874;SDS011;25547;52.530;13.194;2023-06-22T10:14:19;3.35;;;0.30;;
39874;SDS011;25547;52.530;13.194;2023-06-22T10:16:44;1.45;;;0.40;;
39874;SDS011;25547;52.530;13.194;2023-06-22T10:19:10;3.25;;;0.30;;
39874;SDS011;25547;52.530;13.194;2023-06-22T10:21:38;1.63;;;0.20;;
39874;SDS011;25547;52.530;13.194;2023-06-22T10:24:06;2.88;;;0.43;;
39874;SDS011;25547;52.530;13.194;2023-06-22T10:26:32;2.53;;;0.30;;
39874;SDS011;25547;52.530;13.194;2023-06-22T10:29:00;2.80;;;0.35;;
39874;SDS011;25547;52.530;13.194;2023-06-22T10:31:29;4.43;;;0.63;;
39874;SDS011;25547;52.530;13.194;2023-06-22T10:33:55;2.83;;;0.30;;
39874;SDS011;25547;52.530;13.194;2023-06-22T10:36:21;1.70;;;0.30;;
39874;SDS011;25547;52.530;13.194;2023-06-22T10:38:49;1.60;;;0.30;;
39874;SDS011;25547;52.530;13.194;2023-06-22T10:41:17;4.57;;;0.55;;
39874;SDS011;25547;52.530;13.194;2023-06-22T10:43:43;2.70;;;0.55;;
39874;SDS011;25547;52.530;13.194;2023-06-22T10:46:11;2.38;;;0.45;;
39874;SDS011;25547;52.530;13.194;2023-06-22T10:48:37;2.72;;;0.70;;
39874;SDS011;25547;52.530;13.194;2023-06-22T10:51:03;6.45;;;0.60;;
39874;SDS011;25547;52.530;13.194;2023-06-22T10:53:31;4.22;;;0.70;;
39874;SDS011;25547;52.530;13.194;2023-06-22T10:55:57;2.92;;;0.50;;
39874;SDS011;25547;52.530;13.194;2023-06-22T10:58:25;2.75;;;0.63;;
39874;SDS011;25547;52.530;13.194;2023-06-22T11:00:51;1.50;;;0.40;;
39874;SDS011;25547;52.530;13.194;2023-06-22T11:03:19;3.28;;;0.80;;
39874;SDS011;25547;52.530;13.194;2023-06-22T11:05:45;2.83;;;0.98;;
39874;SDS011;25547;52.530;13.194;2023-06-22T11:08:12;2.70;;;0.80;;
39874;SDS011;25547;52.530;13.194;2023-06-22T11:10:40;2.28;;;0.57;;
39874;SDS011;25547;52.530;13.194;2023-06-22T11:13:06;2.05;;;0.50;;
39874;SDS011;25547;52.530;13.194;2023-06-22T11:15:34;1.75;;;0.68;;
39874;SDS011;25547;52.530;13.194;2023-06-22T11:18:03;1.73;;;0.70;;
39874;SDS011;25547;52.530;13.194;2023-06-22T11:20:30;1.65;;;0.60;;
39874;SDS011;25547;52.530;13.194;2023-06-22T11:22:56;2.97;;;1.23;;
39874;SDS011;25547;52.530;13.194;2023-06-22T11:25:22;2.22;;;0.80;;
39874;SDS011;25547;52.530;13.194;2023-06-22T11:27:47;3.58;;;0.70;;
39874;SDS011;25547;52.530;13.194;2023-06-22T11:30:13;1.65;;;0.50;;
39874;SDS011;25547;52.530;13.194;2023-06-22T11:32:39;1.40;;;0.50;;
39874;SDS011;25547;52.530;13.194;2023-06-22T11:35:04;5.45;;;0.50;;
39874;SDS011;25547;52.530;13.194;2023-06-22T11:37:30;2.72;;;0.60;;
39874;SDS011;25547;52.530;13.194;2023-06-22T11:39:56;3.50;;;0.45;;
39874;SDS011;25547;52.530;13.194;2023-06-22T11:42:21;3.83;;;0.93;;
39874;SDS011;25547;52.530;13.194;2023-06-22T11:44:53;2.85;;;0.35;;
39874;SDS011;25547;52.530;13.194;2023-06-22T11:47:19;5.70;;;0.80;;
39874;SDS011;25547;52.530;13.194;2023-06-22T11:49:47;2.08;;;0.60;;
39874;SDS011;25547;52.530;13.194;2023-06-22T11:52:13;2.45;;;0.63;;
39874;SDS011;25547;52.530;13.194;2023-06-22T11:54:38;2.60;;;0.77;;
39874;SDS011;25547;52.530;13.194;2023-06-22T11:57:04;3.50;;;1.00;;
39874;SDS011;25547;52.530;13.194;2023-06-22T11:59:29;4.10;;;1.00;;
39874;SDS011;25547;52.530;13.194;2023-06-22T12:01:55;4.78;;;0.95;;
39874;SDS011;25547;52.530;13.194;2023-06-22T12:04:24;2.65;;;1.20;;
39874;SDS011;25547;52.530;13.194;2023-06-22T12:06:49;3.38;;;0.95;;
39874;SDS011;25547;52.530;13.194;2023-06-22T12:09:15;1.85;;;0.52;;
39874;SDS011;25547;52.530;13.194;2023-06-22T12:11:41;4.90;;;0.85;;
39874;SDS011;25547;52.530;13.194;2023-06-22T12:14:07;3.35;;;0.65;;
39874;SDS011;25547;52.530;13.194;2023-06-22T12:16:32;4.88;;;0.60;;
39874;SDS011;25547;52.530;13.194;2023-06-22T12:18:58;2.45;;;1.08;;
39874;SDS011;25547;52.530;13.194;2023-06-22T12:21:29;4.53;;;1.13;;
39874;SDS011;25547;52.530;13.194;2023-06-22T12:23:57;2.03;;;0.70;;
39874;SDS011;25547;52.530;13.194;2023-06-22T12:26:22;2.78;;;0.73;;
39874;SDS011;25547;52.530;13.194;2023-06-22T12:28:48;2.50;;;0.80;;
39874;SDS011;25547;52.530;13.194;2023-06-22T12:31:14;2.20;;;0.60;;
39874;SDS011;25547;52.530;13.194;2023-06-22T12:33:42;11.45;;;1.00;;
39874;SDS011;25547;52.530;13.194;2023-06-22T12:36:08;4.30;;;0.63;;
39874;SDS011;25547;52.530;13.194;2023-06-22T12:38:33;1.85;;;0.50;;
39874;SDS011;25547;52.530;13.194;2023-06-22T12:41:01;2.25;;;0.70;;
39874;SDS011;25547;52.530;13.194;2023-06-22T12:43:27;3.63;;;0.50;;
39874;SDS011;25547;52.530;13.194;2023-06-22T12:45:53;2.08;;;0.73;;
39874;SDS011;25547;52.530;13.194;2023-06-22T12:48:18;2.17;;;0.77;;
39874;SDS011;25547;52.530;13.194;2023-06-22T12:50:44;3.10;;;0.57;;
39874;SDS011;25547;52.530;13.194;2023-06-22T12:53:11;1.48;;;0.68;;
39874;SDS011;25547;52.530;13.194;2023-06-22T12:55:37;3.78;;;0.70;;
39874;SDS011;25547;52.530;13.194;2023-06-22T12:58:05;3.63;;;0.63;;
39874;SDS011;25547;52.530;13.194;2023-06-22T13:00:31;5.15;;;0.50;;
39874;SDS011;25547;52.530;13.194;2023-06-22T13:02:57;2.63;;;0.70;;
39874;SDS011;25547;52.530;13.194;2023-06-22T13:05:22;3.15;;;0.52;;
39874;SDS011;25547;52.530;13.194;2023-06-22T13:07:48;3.33;;;0.60;;
39874;SDS011;25547;52.530;13.194;2023-06-22T13:10:14;2.95;;;0.90;;
39874;SDS011;25547;52.530;13.194;2023-06-22T13:12:39;2.20;;;0.60;;
39874;SDS011;25547;52.530;13.194;2023-06-22T13:15:05;2.38;;;0.82;;
39874;SDS011;25547;52.530;13.194;2023-06-22T13:17:33;1.83;;;0.73;;
39874;SDS011;25547;52.530;13.194;2023-06-22T13:19:59;2.92;;;0.73;;
39874;SDS011;25547;52.530;13.194;2023-06-22T13:25:05;1.77;;;0.75;;
39874;SDS011;25547;52.530;13.194;2023-06-22T13:27:31;3.60;;;0.75;;
39874;SDS011;25547;52.530;13.194;2023-06-22T13:29:57;4.20;;;1.00;;
39874;SDS011;25547;52.530;13.194;2023-06-22T13:32:23;1.40;;;0.40;;
39874;SDS011;25547;52.530;13.194;2023-06-22T13:34:48;1.92;;;0.85;;
39874;SDS011;25547;52.530;13.194;2023-06-22T13:37:17;2.88;;;0.55;;
39874;SDS011;25547;52.530;13.194;2023-06-22T13:39:43;4.28;;;0.85;;
39874;SDS011;25547;52.530;13.194;2023-06-22T13:42:09;1.83;;;0.55;;
39874;SDS011;25547;52.530;13.194;2023-06-22T13:44:37;4.85;;;0.90;;
39874;SDS011;25547;52.530;13.194;2023-06-22T13:47:02;2.42;;;0.50;;
39874;SDS011;25547;52.530;13.194;2023-06-22T13:49:29;4.00;;;0.70;;
39874;SDS011;25547;52.530;13.194;2023-06-22T13:51:55;2.63;;;0.63;;
39874;SDS011;25547;52.530;13.194;2023-06-22T13:54:23;6.40;;;0.65;;
39874;SDS011;25547;52.530;13.194;2023-06-22T13:56:49;4.57;;;0.40;;
39874;SDS011;25547;52.530;13.194;2023-06-22T13:59:14;3.30;;;0.73;;
39874;SDS011;25547;52.530;13.194;2023-06-22T14:01:45;3.35;;;0.60;;
39874;SDS011;25547;52.530;13.194;2023-06-22T14:04:11;6.47;;;0.90;;
39874;SDS011;25547;52.530;13.194;2023-06-22T14:06:37;2.38;;;0.93;;
39874;SDS011;25547;52.530;13.194;2023-06-22T14:09:06;3.08;;;1.15;;
39874;SDS011;25547;52.530;13.194;2023-06-22T14:11:32;2.95;;;1.02;;
39874;SDS011;25547;52.530;13.194;2023-06-22T14:13:57;1.85;;;0.65;;
39874;SDS011;25547;52.530;13.194;2023-06-22T14:16:23;4.28;;;1.20;;
39874;SDS011;25547;52.530;13.194;2023-06-22T14:18:48;1.70;;;0.63;;
39874;SDS011;25547;52.530;13.194;2023-06-22T14:21:14;3.10;;;0.82;;
39874;SDS011;25547;52.530;13.194;2023-06-22T14:23:39;2.40;;;0.82;;
39874;SDS011;25547;52.530;13.194;2023-06-22T14:26:05;6.90;;;1.00;;
39874;SDS011;25547;52.530;13.194;2023-06-22T14:28:31;4.00;;;0.80;;
39874;SDS011;25547;52.530;13.194;2023-06-22T14:30:58;4.15;;;0.77;;
39874;SDS011;25547;52.530;13.194;2023-06-22T14:33:24;4.60;;;1.38;;
39874;SDS011;25547;52.530;13.194;2023-06-22T14:35:50;2.05;;;0.63;;
39874;SDS011;25547;52.530;13.194;2023-06-22T14:38:15;4.30;;;1.02;;
39874;SDS011;25547;52.530;13.194;2023-06-22T14:40:43;4.22;;;0.85;;
39874;SDS011;25547;52.530;13.194;2023-06-22T14:43:09;2.20;;;0.60;;
39874;SDS011;25547;52.530;13.194;2023-06-22T14:45:34;4.63;;;0.85;;
39874;SDS011;25547;52.530;13.194;2023-06-22T14:48:00;2.30;;;1.23;;
39874;SDS011;25547;52.530;13.194;2023-06-22T14:50:26;2.95;;;0.40;;